Time;durP1;ratioP1;P1;durP2;ratioP2;P2;SDS_P1;SDS_P2;PMS_P1;PMS_P2;Temp;Humidity;BMP_temperature;BMP_pressure;BME280_temperature;BME280_humidity;BME280_pressure;Samples;Min_cycle;Max_cycle;Signal;HPM_P1;HPM_P2
2022/10/29 00:02:02;;;;;;;;;;;;;;;13.76;68.48;97421.54;104943;1290;22834;-83
2022/10/29 00:04:32;;;;;;;;;;;;;;;13.79;68.23;97415.91;105012;1294;22443;-84
2022/10/29 00:07:18;;;;;;;;;;;;;;;13.87;67.98;97423.00;105066;1306;25304;-84
2022/10/29 00:09:47;;;;;;;;;;;;;;;13.84;67.82;97425.64;105149;1298;22636;-84
2022/10/29 00:12:35;;;;;;;;;;;;;;;13.86;67.70;97430.20;105058;1306;22459;-84
2022/10/29 00:15:04;;;;;;;;;;;;;;;13.87;67.67;97429.29;105098;1306;22502;-84
2022/10/29 00:17:51;;;;;;;;;;;;;;;13.80;67.78;97433.62;105125;1300;22468;-84
2022/10/29 00:20:21;;;;;;;;;;;;;;;13.72;67.82;97427.33;105101;1306;22522;-84
2022/10/29 00:22:52;;;;;;;;;;;;;;;13.66;68.03;97420.71;105055;1287;22449;-83
2022/10/29 00:25:22;;;;;;;;;;;;;;;13.67;68.21;97419.33;105096;1291;22460;-83
2022/10/29 00:27:51;;;;;;;;;;;;;;;13.68;68.26;97412.45;105021;1291;22526;-84
2022/10/29 00:30:20;;;;;;;;;;;;;;;13.69;68.14;97412.91;105027;1306;22432;-83
2022/10/29 00:32:50;;;;;;;;;;;;;;;13.71;68.04;97412.53;104941;1291;22982;-84
2022/10/29 00:35:19;;;;;;;;;;;;;;;13.73;68.00;97408.41;104988;1306;22461;-84
2022/10/29 00:37:48;;;;;;;;;;;;;;;13.70;68.16;97403.85;104959;1298;22495;-84
2022/10/29 00:40:37;;;;;;;;;;;;;;;13.69;68.14;97407.02;104984;1306;23811;-84
2022/10/29 00:43:14;;;;;;;;;;;;;;;13.70;68.23;97406.52;104922;1291;23574;-84
2022/10/29 00:45:46;;;;;;;;;;;;;;;13.74;68.22;97402.27;104986;1306;22453;-84
2022/10/29 00:48:16;;;;;;;;;;;;;;;13.79;68.10;97403.98;104972;1300;22450;-84
2022/10/29 00:50:46;;;;;;;;;;;;;;;13.87;67.81;97398.91;104994;1306;22467;-84
2022/10/29 00:53:16;;;;;;;;;;;;;;;13.97;67.52;97397.86;104942;1290;22484;-84
2022/10/29 00:55:46;;;;;;;;;;;;;;;13.99;67.32;97394.33;105002;1305;22453;-84
2022/10/29 00:58:15;;;;;;;;;;;;;;;14.02;67.03;97390.18;104998;1291;22465;-84
2022/10/29 01:00:45;;;;;;;;;;;;;;;14.01;66.98;97387.59;104988;1306;22460;-84
2022/10/29 01:03:32;;;;;;;;;;;;;;;13.97;66.82;97386.04;104954;1298;25881;-84
2022/10/29 01:06:02;;;;;;;;;;;;;;;14.04;66.54;97387.08;105008;1294;22436;-84
2022/10/29 01:08:31;;;;;;;;;;;;;;;14.08;66.42;97385.98;105013;1298;24364;-83
2022/10/29 01:11:04;;;;;;;;;;;;;;;14.06;66.39;97380.86;104982;1293;22448;-84
2022/10/29 01:13:37;;;;;;;;;;;;;;;14.07;66.30;97377.18;104868;1307;22482;-83
2022/10/29 01:16:12;;;;;;;;;;;;;;;14.07;66.14;97374.34;104902;1291;22520;-84
2022/10/29 01:18:44;;;;;;;;;;;;;;;14.05;66.18;97376.51;104911;1288;25361;-84
2022/10/29 01:21:27;;;;;;;;;;;;;;;14.01;66.18;97373.08;104857;1307;22616;-84
2022/10/29 01:24:12;;;;;;;;;;;;;;;13.98;66.33;97368.65;104812;1307;32416;-84
2022/10/29 01:26:57;;;;;;;;;;;;;;;13.90;66.48;97367.36;104936;1307;22454;-84
2022/10/29 01:29:35;;;;;;;;;;;;;;;13.83;66.64;97366.48;104880;1307;22501;-84
2022/10/29 01:32:11;;;;;;;;;;;;;;;13.78;66.75;97362.67;104872;1293;29641;-84
2022/10/29 01:34:42;;;;;;;;;;;;;;;13.75;66.89;97365.64;104841;1303;153039;-84
2022/10/29 01:37:15;;;;;;;;;;;;;;;13.80;66.67;97364.37;104968;1305;22443;-84
2022/10/29 01:39:52;;;;;;;;;;;;;;;13.90;66.42;97364.66;104980;1285;25285;-84
2022/10/29 01:42:24;;;;;;;;;;;;;;;13.94;66.21;97370.65;104894;1294;22475;-84
2022/10/29 01:44:58;;;;;;;;;;;;;;;13.92;66.26;97376.95;104927;1306;22443;-84
2022/10/29 01:47:28;;;;;;;;;;;;;;;13.87;66.24;97376.02;104980;1284;22454;-84
2022/10/29 01:50:00;;;;;;;;;;;;;;;13.83;66.26;97368.62;104894;1283;22455;-83
2022/10/29 01:52:47;;;;;;;;;;;;;;;13.88;66.10;97367.65;104906;1307;28596;-84
2022/10/29 01:55:18;;;;;;;;;;;;;;;13.94;65.83;97368.69;104915;1276;22604;-84
2022/10/29 01:57:48;;;;;;;;;;;;;;;13.95;65.58;97365.69;104903;1300;22451;-84
2022/10/29 02:00:19;;;;;;;;;;;;;;;14.01;65.46;97367.96;104883;1306;22437;-84
2022/10/29 02:02:58;;;;;;;;;;;;;;;14.03;65.36;97363.04;104811;1308;22448;-84
2022/10/29 02:05:51;;;;;;;;;;;;;;;13.99;65.44;97362.88;104945;1307;22483;-84
2022/10/29 02:08:27;;;;;;;;;;;;;;;13.96;65.46;97363.11;104858;1308;22699;-84
2022/10/29 02:11:00;;;;;;;;;;;;;;;13.90;65.64;97360.33;104806;1301;22540;-85
2022/10/29 02:13:31;;;;;;;;;;;;;;;13.89;65.68;97354.90;104846;1290;25347;-84
2022/10/29 02:16:18;;;;;;;;;;;;;;;13.91;65.61;97356.28;104905;1307;22576;-84
2022/10/29 02:18:49;;;;;;;;;;;;;;;13.93;65.47;97345.65;104900;1307;22470;-84
2022/10/29 02:21:35;;;;;;;;;;;;;;;13.95;65.33;97343.73;104856;1307;25705;-83
2022/10/29 02:24:23;;;;;;;;;;;;;;;13.93;65.30;97342.40;104914;1309;22493;-84
2022/10/29 02:26:53;;;;;;;;;;;;;;;13.92;65.18;97337.81;104857;1300;22479;-84
2022/10/29 02:29:22;;;;;;;;;;;;;;;13.99;65.14;97337.59;104870;1300;22447;-84
2022/10/29 02:31:51;;;;;;;;;;;;;;;14.02;64.81;97330.90;104849;1300;31491;-83
2022/10/29 02:34:20;;;;;;;;;;;;;;;13.98;64.76;97335.95;104893;1307;23123;-84
2022/10/29 02:37:07;;;;;;;;;;;;;;;13.94;64.90;97334.94;104920;1299;22435;-84
2022/10/29 02:39:37;;;;;;;;;;;;;;;13.97;64.72;97338.63;104878;1307;24411;-84
2022/10/29 02:42:06;;;;;;;;;;;;;;;13.98;64.54;97338.84;104854;1292;25197;-84
2022/10/29 02:44:53;;;;;;;;;;;;;;;13.97;64.68;97340.60;104931;1294;24298;-84
2022/10/29 02:47:40;;;;;;;;;;;;;;;13.92;64.71;97339.03;104900;1307;22486;-84
2022/10/29 02:50:10;;;;;;;;;;;;;;;13.96;64.37;97335.88;104945;1287;22455;-84
2022/10/29 02:52:39;;;;;;;;;;;;;;;14.00;64.42;97338.92;104904;1306;30065;-84
2022/10/29 02:55:09;;;;;;;;;;;;;;;14.02;64.09;97328.45;104968;1290;22454;-84
2022/10/29 02:57:56;;;;;;;;;;;;;;;14.02;64.05;97341.40;104950;1292;22450;-84
2022/10/29 03:00:25;;;;;;;;;;;;;;;14.01;63.96;97339.39;104971;1301;22474;-84
2022/10/29 03:02:54;;;;;;;;;;;;;;;14.04;63.89;97328.58;104938;1301;23235;-84
2022/10/29 03:05:24;;;;;;;;;;;;;;;14.06;63.83;97336.19;104983;1301;22452;-84
2022/10/29 03:07:53;;;;;;;;;;;;;;;14.06;63.70;97324.77;104992;1285;22533;-84
2022/10/29 03:10:22;;;;;;;;;;;;;;;14.06;63.81;97336.48;104996;1283;22482;-84
2022/10/29 03:12:52;;;;;;;;;;;;;;;14.04;63.83;97332.84;104894;1306;22462;-85
2022/10/29 03:15:21;;;;;;;;;;;;;;;14.04;63.84;97328.00;104921;1308;22446;-84
2022/10/29 03:18:08;;;;;;;;;;;;;;;14.04;63.74;97326.83;104942;1308;22577;-84
2022/10/29 03:20:55;;;;;;;;;;;;;;;14.06;63.67;97327.21;104925;1306;22457;-85
2022/10/29 03:23:24;;;;;;;;;;;;;;;14.07;63.49;97332.55;104879;1307;22504;-85
2022/10/29 03:25:55;;;;;;;;;;;;;;;14.10;63.41;97328.91;104897;1296;24256;-84
2022/10/29 03:28:26;;;;;;;;;;;;;;;14.06;63.46;97323.55;104932;1306;22473;-84
2022/10/29 03:30:55;;;;;;;;;;;;;;;14.09;63.27;97324.13;104931;1308;22464;-85
2022/10/29 03:33:26;;;;;;;;;;;;;;;14.11;63.01;97317.42;104947;1294;22563;-83
2022/10/29 03:35:59;;;;;;;;;;;;;;;14.12;63.15;97318.16;105008;1298;22444;-84
2022/10/29 03:38:29;;;;;;;;;;;;;;;14.09;63.15;97308.55;105025;1306;24289;-84
2022/10/29 03:40:58;;;;;;;;;;;;;;;14.12;63.10;97316.72;104986;1290;22462;-84
2022/10/29 03:43:28;;;;;;;;;;;;;;;14.13;62.86;97303.86;104965;1304;24341;-84
2022/10/29 03:45:57;;;;;;;;;;;;;;;14.12;62.97;97308.35;105002;1294;22586;-83
2022/10/29 03:48:44;;;;;;;;;;;;;;;14.12;62.77;97301.73;104985;1300;25350;-83
2022/10/29 03:51:31;;;;;;;;;;;;;;;14.15;62.78;97302.20;104941;1306;23414;-82
2022/10/29 03:54:00;;;;;;;;;;;;;;;14.16;62.67;97301.95;104923;1284;24727;-83
2022/10/29 03:56:47;;;;;;;;;;;;;;;14.16;62.61;97299.17;104908;1300;22500;-84
2022/10/29 03:59:16;;;;;;;;;;;;;;;14.16;62.52;97296.67;104859;1293;25358;-83
2022/10/29 04:01:46;;;;;;;;;;;;;;;14.15;62.55;97297.38;104865;1287;22452;-83
2022/10/29 04:04:15;;;;;;;;;;;;;;;14.13;62.68;97297.04;104908;1303;22655;-84
2022/10/29 04:06:44;;;;;;;;;;;;;;;14.12;62.77;97297.10;104910;1301;24530;-84
2022/10/29 04:09:32;;;;;;;;;;;;;;;14.10;62.63;97292.38;104899;1309;24294;-84
2022/10/29 04:12:01;;;;;;;;;;;;;;;14.12;62.69;97296.14;104847;1299;24772;-84
2022/10/29 04:14:31;;;;;;;;;;;;;;;14.13;62.57;97298.80;104876;1309;24260;-83
2022/10/29 04:17:00;;;;;;;;;;;;;;;14.12;62.55;97303.49;104914;1299;22502;-84
2022/10/29 04:19:29;;;;;;;;;;;;;;;14.10;62.54;97301.92;104858;1307;23804;-83
2022/10/29 04:21:58;;;;;;;;;;;;;;;14.07;62.68;97303.11;104891;1294;22502;-84
2022/10/29 04:24:45;;;;;;;;;;;;;;;14.06;62.73;97302.48;104999;1306;22443;-83
2022/10/29 04:27:15;;;;;;;;;;;;;;;14.08;62.60;97298.96;104970;1306;22457;-83
2022/10/29 04:29:44;;;;;;;;;;;;;;;14.08;62.66;97296.08;104981;1292;22436;-83
2022/10/29 04:32:14;;;;;;;;;;;;;;;14.07;62.75;97300.98;104945;1299;22443;-83
2022/10/29 04:34:43;;;;;;;;;;;;;;;14.05;62.74;97295.98;105003;1290;22473;-83
2022/10/29 04:37:12;;;;;;;;;;;;;;;14.07;62.66;97292.66;105001;1301;22457;-83
2022/10/29 04:39:42;;;;;;;;;;;;;;;14.08;62.82;97295.23;105000;1291;22459;-84
2022/10/29 04:42:11;;;;;;;;;;;;;;;14.08;62.83;97294.90;104964;1298;24316;-83
2022/10/29 04:44:41;;;;;;;;;;;;;;;14.08;62.58;97290.58;104980;1305;22458;-83
2022/10/29 04:47:10;;;;;;;;;;;;;;;14.12;62.52;97297.80;104986;1297;22443;-84
2022/10/29 04:49:39;;;;;;;;;;;;;;;14.15;62.54;97297.11;104991;1290;22449;-83
2022/10/29 04:52:09;;;;;;;;;;;;;;;14.19;62.28;97300.42;104928;1306;22537;-84
2022/10/29 04:54:38;;;;;;;;;;;;;;;14.25;62.09;97298.38;104998;1306;22523;-84
2022/10/29 04:57:08;;;;;;;;;;;;;;;14.29;61.97;97310.45;105028;1284;22477;-84
2022/10/29 04:59:38;;;;;;;;;;;;;;;14.33;61.97;97311.09;104959;1306;22448;-83
2022/10/29 05:02:07;;;;;;;;;;;;;;;14.30;61.89;97315.66;104940;1300;27369;-84
2022/10/29 05:04:36;;;;;;;;;;;;;;;14.24;62.00;97319.10;105000;1305;24361;-84
2022/10/29 05:07:06;;;;;;;;;;;;;;;14.18;62.05;97313.70;104970;1306;22458;-84
2022/10/29 05:09:52;;;;;;;;;;;;;;;14.12;62.23;97314.96;104979;1306;25252;-84
2022/10/29 05:12:22;;;;;;;;;;;;;;;14.06;62.35;97313.59;104941;1291;24011;-84
2022/10/29 05:14:52;;;;;;;;;;;;;;;14.00;62.49;97315.83;105014;1306;22437;-84
2022/10/29 05:17:21;;;;;;;;;;;;;;;13.94;62.57;97307.10;104995;1291;24445;-84
2022/10/29 05:19:50;;;;;;;;;;;;;;;13.96;62.51;97308.52;105016;1306;22455;-84
2022/10/29 05:22:20;;;;;;;;;;;;;;;14.02;62.33;97308.29;104949;1306;22916;-83
2022/10/29 05:24:49;;;;;;;;;;;;;;;14.02;62.33;97312.82;104978;1306;22488;-84
2022/10/29 05:27:36;;;;;;;;;;;;;;;14.01;62.26;97308.02;104998;1292;24455;-84
2022/10/29 05:30:08;;;;;;;;;;;;;;;14.02;62.37;97304.82;105026;1294;22485;-84
2022/10/29 05:32:37;;;;;;;;;;;;;;;14.04;62.26;97305.44;104918;1291;25342;-83
2022/10/29 05:35:07;;;;;;;;;;;;;;;14.04;62.35;97309.70;104949;1290;22463;-83
2022/10/29 05:37:37;;;;;;;;;;;;;;;14.10;62.19;97314.13;104981;1290;22477;-84
2022/10/29 05:40:25;;;;;;;;;;;;;;;14.15;62.08;97318.02;104948;1291;22453;-84
2022/10/29 05:42:54;;;;;;;;;;;;;;;14.19;62.02;97319.36;104861;1291;22483;-84
2022/10/29 05:45:42;;;;;;;;;;;;;;;14.25;61.75;97317.75;105387;1285;22449;-84
2022/10/29 05:48:28;;;;;;;;;;;;;;;14.35;61.64;97323.72;105373;1306;22462;-84
2022/10/29 05:50:58;;;;;;;;;;;;;;;14.39;61.53;97318.57;105380;1289;23728;-84
2022/10/29 05:53:27;;;;;;;;;;;;;;;14.44;61.53;97314.77;105309;1284;26962;-85
2022/10/29 05:55:58;;;;;;;;;;;;;;;14.50;61.39;97313.64;105376;1292;22498;-85
2022/10/29 05:58:27;;;;;;;;;;;;;;;14.56;61.19;97309.78;105399;1292;26780;-84
2022/10/29 06:00:57;;;;;;;;;;;;;;;14.62;61.02;97306.55;105452;1299;22501;-83
2022/10/29 06:03:26;;;;;;;;;;;;;;;14.69;60.79;97304.65;105341;1301;24140;-84
2022/10/29 06:05:57;;;;;;;;;;;;;;;14.74;60.75;97308.15;105443;1306;22584;-82
2022/10/29 06:08:27;;;;;;;;;;;;;;;14.77;60.55;97302.56;105377;1306;22458;-82
2022/10/29 06:10:57;;;;;;;;;;;;;;;14.80;60.47;97301.89;105382;1298;24312;-82
2022/10/29 06:13:26;;;;;;;;;;;;;;;14.84;60.17;97297.29;105294;1294;31204;-82
2022/10/29 06:15:56;;;;;;;;;;;;;;;14.90;60.11;97289.48;105411;1298;22554;-82
2022/10/29 06:18:26;;;;;;;;;;;;;;;14.96;60.14;97283.15;105399;1293;22622;-82
2022/10/29 06:20:57;;;;;;;;;;;;;;;15.09;59.97;97278.18;105405;1279;26376;-83
2022/10/29 06:23:44;;;;;;;;;;;;;;;15.27;59.98;97273.41;105459;1306;22460;-82
2022/10/29 06:26:14;;;;;;;;;;;;;;;15.32;59.65;97270.06;105507;1301;22488;-83
2022/10/29 06:29:01;;;;;;;;;;;;;;;15.33;59.39;97265.77;105376;1285;22473;-83
2022/10/29 06:31:32;;;;;;;;;;;;;;;15.34;59.52;97258.34;105419;1291;26541;-81
2022/10/29 06:34:19;;;;;;;;;;;;;;;15.38;58.38;97258.34;105394;1298;22445;-83
2022/10/29 06:37:05;;;;;;;;;;;;;;;15.40;58.53;97251.18;105408;1296;22468;-81
2022/10/29 06:39:54;;;;;;;;;;;;;;;15.42;58.68;97250.66;105430;1290;22650;-83
2022/10/29 06:42:23;;;;;;;;;;;;;;;15.40;58.57;97257.12;105378;1290;24291;-83
2022/10/29 06:44:53;;;;;;;;;;;;;;;15.41;58.78;97273.41;105354;1306;25205;-84
2022/10/29 06:47:41;;;;;;;;;;;;;;;15.48;58.71;97290.13;105410;1293;22449;-83
2022/10/29 06:50:28;;;;;;;;;;;;;;;15.49;58.42;97288.38;105372;1298;23990;-84
2022/10/29 06:52:59;;;;;;;;;;;;;;;15.60;57.71;97292.24;105283;1301;22568;-85
2022/10/29 06:55:29;;;;;;;;;;;;;;;15.69;57.68;97302.85;105289;1307;22518;-83
2022/10/29 06:58:20;;;;;;;;;;;;;;;15.71;57.87;97313.00;105340;1302;22496;-84
2022/10/29 07:00:50;;;;;;;;;;;;;;;15.72;57.78;97316.95;105369;1305;22489;-84
2022/10/29 07:03:37;;;;;;;;;;;;;;;15.74;58.06;97316.96;105282;1309;22453;-84
2022/10/29 07:06:24;;;;;;;;;;;;;;;15.77;58.16;97318.31;105420;1308;23091;-83
2022/10/29 07:08:54;;;;;;;;;;;;;;;15.83;58.27;97317.52;105410;1301;22629;-83
2022/10/29 07:11:23;;;;;;;;;;;;;;;15.91;58.30;97319.35;105399;1278;24152;-84
2022/10/29 07:13:54;;;;;;;;;;;;;;;16.00;58.80;97318.76;105318;1309;33145;-83
2022/10/29 07:16:23;;;;;;;;;;;;;;;16.07;58.80;97322.13;105325;1292;22633;-84
2022/10/29 07:18:54;;;;;;;;;;;;;;;16.08;57.94;97326.27;105312;1308;22482;-82
2022/10/29 07:21:24;;;;;;;;;;;;;;;16.12;57.54;97327.64;105295;1291;22456;-84
2022/10/29 07:24:12;;;;;;;;;;;;;;;16.26;57.79;97324.15;105310;1309;26450;-84
2022/10/29 07:26:59;;;;;;;;;;;;;;;16.40;57.57;97329.67;105240;1296;22470;-84
2022/10/29 07:29:28;;;;;;;;;;;;;;;16.42;57.31;97331.98;105262;1290;24114;-84
2022/10/29 07:31:58;;;;;;;;;;;;;;;16.48;57.24;97336.15;105218;1291;38524;-84
2022/10/29 07:34:27;;;;;;;;;;;;;;;16.67;56.94;97333.25;105376;1291;22481;-85
2022/10/29 07:36:57;;;;;;;;;;;;;;;17.28;56.39;97326.74;105280;1292;22584;-86
2022/10/29 07:39:26;;;;;;;;;;;;;;;17.84;55.83;97330.41;105258;1308;22470;-85
2022/10/29 07:41:56;;;;;;;;;;;;;;;18.22;54.70;97329.24;105196;1298;23395;-83
2022/10/29 07:44:27;;;;;;;;;;;;;;;18.69;53.76;97327.53;105197;1301;22474;-84
2022/10/29 07:47:14;;;;;;;;;;;;;;;19.34;52.75;97331.55;105242;1301;25322;-84
2022/10/29 07:49:44;;;;;;;;;;;;;;;19.93;52.19;97335.17;105294;1291;22464;-82
2022/10/29 07:52:13;;;;;;;;;;;;;;;20.66;51.81;97340.06;104925;1293;24226;-83
2022/10/29 07:55:01;;;;;;;;;;;;;;;21.10;49.71;97347.19;104900;1309;22508;-83
2022/10/29 07:57:31;;;;;;;;;;;;;;;21.44;50.03;97349.39;104855;1294;22437;-82
2022/10/29 08:00:01;;;;;;;;;;;;;;;21.52;49.28;97355.30;104840;1290;24065;-83
2022/10/29 08:02:31;;;;;;;;;;;;;;;21.49;48.61;97356.52;104884;1289;23279;-82
2022/10/29 08:05:00;;;;;;;;;;;;;;;21.14;48.64;97355.95;104894;1306;22461;-84
2022/10/29 08:07:30;;;;;;;;;;;;;;;21.04;48.57;97351.79;104936;1285;22447;-83
2022/10/29 08:10:00;;;;;;;;;;;;;;;20.77;48.97;97355.93;104849;1301;25363;-83
2022/10/29 08:12:51;;;;;;;;;;;;;;;21.00;48.92;97351.58;104817;1301;22481;-80
2022/10/29 08:15:21;;;;;;;;;;;;;;;21.39;48.64;97351.65;104770;1301;22439;-78
2022/10/29 08:17:51;;;;;;;;;;;;;;;21.75;48.09;97350.80;104888;1295;24359;-80
2022/10/29 08:20:21;;;;;;;;;;;;;;;21.84;47.25;97353.36;104896;1285;22463;-79
2022/10/29 08:22:50;;;;;;;;;;;;;;;21.74;47.18;97357.26;104832;1292;24348;-79
2022/10/29 08:25:20;;;;;;;;;;;;;;;21.53;47.21;97358.17;104955;1297;24122;-80
2022/10/29 08:27:59;;;;;;;;;;;;;;;21.19;46.98;97359.86;104932;1287;22453;-78
2022/10/29 08:30:29;;;;;;;;;;;;;;;20.70;47.41;97363.95;104947;1304;22443;-78
2022/10/29 08:32:59;;;;;;;;;;;;;;;20.25;47.82;97363.42;104882;1291;22476;-78
2022/10/29 08:35:30;;;;;;;;;;;;;;;19.89;48.54;97361.48;104925;1290;22509;-78
2022/10/29 08:37:59;;;;;;;;;;;;;;;19.68;49.14;97362.31;104947;1298;22452;-78
2022/10/29 08:40:30;;;;;;;;;;;;;;;19.55;49.89;97361.94;104979;1295;26395;-76
2022/10/29 08:43:13;;;;;;;;;;;;;;;19.54;50.10;97360.88;104974;1284;26640;-76
2022/10/29 08:45:46;;;;;;;;;;;;;;;19.49;50.27;97361.48;104787;1291;22452;-78
2022/10/29 08:48:20;;;;;;;;;;;;;;;19.53;50.38;97364.52;104767;1304;22453;-78
2022/10/29 08:50:53;;;;;;;;;;;;;;;19.71;50.63;97362.47;104931;1289;22500;-78
2022/10/29 08:53:27;;;;;;;;;;;;;;;19.96;50.49;97361.32;104808;1304;22576;-78
2022/10/29 08:55:57;;;;;;;;;;;;;;;20.21;50.10;97361.82;104933;1309;24330;-78
2022/10/29 08:58:31;;;;;;;;;;;;;;;20.47;50.28;97362.03;104970;1300;23770;-78
2022/10/29 09:01:18;;;;;;;;;;;;;;;20.58;50.07;97363.50;104947;1307;22439;-78
2022/10/29 09:03:48;;;;;;;;;;;;;;;20.71;49.63;97363.86;104947;1305;24269;-78
2022/10/29 09:06:22;;;;;;;;;;;;;;;20.65;49.35;97366.23;104963;1301;22467;-78
2022/10/29 09:08:57;;;;;;;;;;;;;;;20.52;48.44;97363.52;104945;1294;23779;-79
2022/10/29 09:11:36;;;;;;;;;;;;;;;20.34;48.44;97357.82;104942;1309;22472;-75
2022/10/29 09:14:17;;;;;;;;;;;;;;;20.26;48.62;97356.77;104913;1309;22451;-78
2022/10/29 09:16:51;;;;;;;;;;;;;;;20.40;49.79;97362.35;104945;1301;22461;-78
2022/10/29 09:19:28;;;;;;;;;;;;;;;20.57;48.96;97364.54;104903;1290;22499;-78
2022/10/29 09:22:03;;;;;;;;;;;;;;;20.70;49.36;97368.14;104876;1284;22440;-78
2022/10/29 09:24:39;;;;;;;;;;;;;;;20.73;48.78;97370.10;104990;1298;24452;-78
2022/10/29 09:27:15;;;;;;;;;;;;;;;20.78;49.11;97369.43;104910;1290;22455;-78
2022/10/29 09:29:56;;;;;;;;;;;;;;;20.97;49.52;97366.88;104974;1297;22461;-79
2022/10/29 09:32:47;;;;;;;;;;;;;;;21.13;49.37;97368.45;104982;1304;23101;-77
2022/10/29 09:35:18;;;;;;;;;;;;;;;21.18;49.23;97363.81;105333;1297;24395;-77
2022/10/29 09:37:51;;;;;;;;;;;;;;;21.16;49.13;97364.06;104935;1296;24265;-73
2022/10/29 09:40:28;;;;;;;;;;;;;;;21.12;49.03;97359.48;104937;1307;22657;-70
2022/10/29 09:43:19;;;;;;;;;;;;;;;21.03;48.53;97355.77;104837;1291;22949;-70
2022/10/29 09:45:53;;;;;;;;;;;;;;;21.11;49.21;97357.84;104966;1298;22460;-69
2022/10/29 09:48:27;;;;;;;;;;;;;;;21.22;48.76;97353.25;104950;1296;22467;-73
2022/10/29 09:51:02;;;;;;;;;;;;;;;21.18;48.36;97349.23;104981;1304;23183;-70
2022/10/29 09:53:49;;;;;;;;;;;;;;;21.10;48.98;97351.08;104909;1310;22491;-70
2022/10/29 09:56:19;;;;;;;;;;;;;;;20.99;48.25;97345.98;104919;1291;22457;-69
2022/10/29 09:59:12;;;;;;;;;;;;;;;20.83;48.43;97342.92;104796;1292;23016;-69
2022/10/29 10:01:41;;;;;;;;;;;;;;;20.75;48.93;97339.92;104879;1312;22479;-69
2022/10/29 10:04:18;;;;;;;;;;;;;;;20.64;48.65;97339.03;104839;1292;22520;-69
2022/10/29 10:07:04;;;;;;;;;;;;;;;20.49;48.69;97337.02;104925;1290;22492;-69
2022/10/29 10:09:54;;;;;;;;;;;;;;;20.19;48.91;97334.02;104928;1304;22482;-69
2022/10/29 10:12:24;;;;;;;;;;;;;;;20.04;49.18;97322.45;104912;1291;22513;-69
2022/10/29 10:15:04;;;;;;;;;;;;;;;20.06;49.67;97323.20;104956;1312;22864;-69
2022/10/29 10:17:57;;;;;;;;;;;;;;;20.02;49.54;97330.72;104911;1297;22457;-69
2022/10/29 10:20:45;;;;;;;;;;;;;;;19.95;49.76;97324.48;104866;1297;25332;-69
2022/10/29 10:23:22;;;;;;;;;;;;;;;20.04;50.08;97321.38;104839;1310;24296;-69
2022/10/29 10:25:52;;;;;;;;;;;;;;;20.34;50.10;97320.56;105007;1291;22467;-70
2022/10/29 10:28:22;;;;;;;;;;;;;;;20.58;50.01;97307.59;104871;1297;22462;-70
2022/10/29 10:31:08;;;;;;;;;;;;;;;20.80;49.58;97308.00;104960;1297;23134;-86
2022/10/29 10:33:44;;;;;;;;;;;;;;;20.83;48.58;97303.33;105206;1290;27724;-88
2022/10/29 10:36:13;;;;;;;;;;;;;;;20.79;48.68;97310.48;105360;1299;24486;-88
2022/10/29 10:38:44;;;;;;;;;;;;;;;20.81;48.44;97314.27;105596;1296;25387;-89
2022/10/29 10:41:14;;;;;;;;;;;;;;;20.87;48.73;97318.73;105574;1291;25517;-89
2022/10/29 10:43:45;;;;;;;;;;;;;;;20.88;48.41;97308.77;105360;1300;22451;-90
2022/10/29 10:46:19;;;;;;;;;;;;;;;20.76;48.29;97309.46;105297;1296;22585;-89
2022/10/29 10:48:58;;;;;;;;;;;;;;;20.73;49.00;97303.67;105348;1310;22493;-88
2022/10/29 10:51:29;;;;;;;;;;;;;;;20.82;49.46;97294.29;105152;1304;54680;-87
2022/10/29 10:53:59;;;;;;;;;;;;;;;20.91;49.60;97294.69;105255;1302;22482;-89
2022/10/29 10:56:29;;;;;;;;;;;;;;;21.01;49.59;97299.55;105195;1306;22477;-88
2022/10/29 10:59:06;;;;;;;;;;;;;;;21.07;49.80;97297.69;105203;1287;25368;-89
2022/10/29 11:01:39;;;;;;;;;;;;;;;21.09;49.87;97297.67;105177;1307;22442;-88
2022/10/29 11:04:14;;;;;;;;;;;;;;;21.14;50.65;97291.45;105221;1299;22458;-88
2022/10/29 11:07:04;;;;;;;;;;;;;;;21.22;49.91;97287.45;105207;1284;22450;-88
2022/10/29 11:09:37;;;;;;;;;;;;;;;21.11;49.53;97290.15;105269;1285;25269;-88
2022/10/29 11:12:12;;;;;;;;;;;;;;;20.92;50.01;97284.42;105157;1295;24014;-86
2022/10/29 11:14:46;;;;;;;;;;;;;;;20.88;50.23;97284.65;105233;1306;22589;-87
2022/10/29 11:17:37;;;;;;;;;;;;;;;20.95;50.61;97282.21;105205;1297;22514;-88
2022/10/29 11:20:13;;;;;;;;;;;;;;;21.15;50.65;97269.88;105210;1307;22563;-89
2022/10/29 11:22:49;;;;;;;;;;;;;;;21.19;50.36;97265.62;105094;1307;73701;-89
2022/10/29 11:25:40;;;;;;;;;;;;;;;21.21;50.96;97268.17;105246;1309;22576;-91
2022/10/29 11:28:25;;;;;;;;;;;;;;;21.34;50.45;97258.77;105330;1309;22654;-90
2022/10/29 11:30:56;;;;;;;;;;;;;;;21.38;50.76;97263.98;105287;1309;22449;-91
2022/10/29 11:33:34;;;;;;;;;;;;;;;21.36;50.16;97264.92;105308;1307;23842;-90
2022/10/29 11:36:08;;;;;;;;;;;;;;;21.31;50.41;97262.69;105244;1291;22547;-91
2022/10/29 11:38:40;;;;;;;;;;;;;;;21.26;50.59;97265.80;105245;1306;22448;-90
2022/10/29 11:41:16;;;;;;;;;;;;;;;21.12;50.08;97263.27;105224;1307;25202;-91
2022/10/29 11:43:46;;;;;;;;;;;;;;;21.11;51.03;97257.70;105185;1297;23278;-90
2022/10/29 11:46:21;;;;;;;;;;;;;;;21.18;50.93;97255.73;105255;1293;22461;-91
2022/10/29 11:48:56;;;;;;;;;;;;;;;21.28;50.88;97251.80;105255;1307;22459;-90
2022/10/29 11:51:31;;;;;;;;;;;;;;;21.36;51.19;97253.05;105247;1307;22477;-91
2022/10/29 11:54:23;;;;;;;;;;;;;;;21.43;50.95;97252.38;105271;1300;22447;-90
2022/10/29 11:57:15;;;;;;;;;;;;;;;21.35;51.03;97252.10;105227;1307;22556;-91
2022/10/29 11:59:58;;;;;;;;;;;;;;;21.37;50.88;97252.09;105224;1307;22988;-91
2022/10/29 12:03:01;;;;;;;;;;;;;;;21.50;51.43;97247.14;105177;1307;22501;-90
2022/10/29 12:05:36;;;;;;;;;;;;;;;21.57;50.89;97244.39;105262;1302;22596;-89
2022/10/29 12:08:14;;;;;;;;;;;;;;;21.50;50.59;97239.81;105265;1307;22503;-91
2022/10/29 12:11:05;;;;;;;;;;;;;;;21.35;51.00;97238.32;105283;1307;22577;-90
2022/10/29 12:13:43;;;;;;;;;;;;;;;21.14;51.28;97243.62;105206;1293;79670;-91
2022/10/29 12:16:16;;;;;;;;;;;;;;;21.02;51.81;97242.45;105275;1307;22445;-91
2022/10/29 12:19:10;;;;;;;;;;;;;;;20.97;51.77;97239.45;105383;1307;22479;-91
2022/10/29 12:21:43;;;;;;;;;;;;;;;20.97;52.35;97239.70;105289;1291;22499;-91
2022/10/29 12:24:43;;;;;;;;;;;;;;;21.04;52.34;97238.18;105320;1307;22482;-91
2022/10/29 12:27:19;;;;;;;;;;;;;;;21.01;52.61;97241.16;105229;1301;22497;-90
2022/10/29 12:29:53;;;;;;;;;;;;;;;20.87;52.55;97241.73;105299;1307;22465;-91
2022/10/29 12:32:25;;;;;;;;;;;;;;;20.78;52.57;97243.38;105199;1307;22706;-91
2022/10/29 12:35:01;;;;;;;;;;;;;;;20.70;53.02;97245.34;105321;1307;22510;-90
2022/10/29 12:37:35;;;;;;;;;;;;;;;20.68;53.20;97243.98;105335;1307;22526;-91
2022/10/29 12:40:09;;;;;;;;;;;;;;;20.66;53.47;97240.10;105234;1297;22452;-90
2022/10/29 12:42:57;;;;;;;;;;;;;;;20.69;54.13;97237.85;105206;1306;31061;-90
2022/10/29 12:45:34;;;;;;;;;;;;;;;20.73;54.10;97247.98;105234;1306;24213;-90
2022/10/29 12:48:08;;;;;;;;;;;;;;;20.71;54.06;97253.80;105300;1307;22579;-90
2022/10/29 12:50:46;;;;;;;;;;;;;;;20.73;53.83;97257.61;105303;1291;22941;-90
2022/10/29 12:53:24;;;;;;;;;;;;;;;20.67;53.84;97263.23;105267;1307;42067;-89
2022/10/29 12:55:56;;;;;;;;;;;;;;;20.53;54.37;97257.77;105291;1294;24324;-90
2022/10/29 12:58:43;;;;;;;;;;;;;;;20.43;54.43;97256.09;105385;1304;22456;-78
2022/10/29 13:01:48;;;;;;;;;;;;;;;20.23;54.24;97248.51;104916;1301;22469;-77
2022/10/29 13:04:36;;;;;;;;;;;;;;;20.04;54.56;97249.52;105013;1290;25256;-78
2022/10/29 13:07:06;;;;;;;;;;;;;;;19.99;54.85;97249.64;104806;1284;23004;-79
2022/10/29 13:09:36;;;;;;;;;;;;;;;20.00;54.99;97247.45;104955;1284;22523;-77
2022/10/29 13:12:10;;;;;;;;;;;;;;;20.04;55.11;97247.43;104899;1299;22513;-77
2022/10/29 13:14:41;;;;;;;;;;;;;;;20.06;55.17;97239.52;105009;1307;22450;-78
2022/10/29 13:17:23;;;;;;;;;;;;;;;20.11;55.28;97232.34;105042;1301;22493;-79